createdAt,value
2018-11-23T00:00:14.272Z,30.73
2018-11-23T00:02:43.325Z,33.13
2018-11-23T00:05:11.156Z,33.97
2018-11-23T00:07:39.332Z,33.77
2018-11-23T00:10:09.072Z,34.90
2018-11-23T00:12:37.097Z,34.83
2018-11-23T00:15:06.775Z,34.37
2018-11-23T00:17:34.455Z,32.33
2018-11-23T00:20:02.198Z,32.90
2018-11-23T00:22:29.963Z,34.83
2018-11-23T00:24:57.695Z,34.53
2018-11-23T00:27:25.494Z,36.50
2018-11-23T00:29:53.228Z,35.93
2018-11-23T00:32:20.936Z,33.73
2018-11-23T00:34:48.674Z,35.50
2018-11-23T00:37:16.427Z,35.53
2018-11-23T00:39:44.133Z,35.67
2018-11-23T00:42:12.583Z,33.30
2018-11-23T00:44:40.331Z,34.33
2018-11-23T00:47:08.077Z,30.90
2018-11-23T00:49:35.803Z,32.77
2018-11-23T00:52:03.599Z,31.90
2018-11-23T00:54:31.317Z,31.10
2018-11-23T00:56:59.161Z,32.87
2018-11-23T00:59:26.933Z,32.73
2018-11-23T01:02:00.576Z,32.77
2018-11-23T01:04:28.356Z,30.90
2018-11-23T01:06:56.077Z,33.70
2018-11-23T01:09:23.793Z,36.10
2018-11-23T01:11:51.538Z,32.97
2018-11-23T01:14:19.303Z,32.20
2018-11-23T01:16:47.043Z,31.07
2018-11-23T01:19:14.843Z,33.63
2018-11-23T01:21:42.575Z,34.13
2018-11-23T01:24:10.251Z,34.67
2018-11-23T01:26:38.041Z,35.60
2018-11-23T01:29:05.778Z,36.23
2018-11-23T01:31:33.489Z,37.53
2018-11-23T01:34:01.271Z,38.87
2018-11-23T01:36:29.015Z,39.87
2018-11-23T01:38:56.744Z,38.63
2018-11-23T01:41:24.487Z,37.70
2018-11-23T01:43:52.217Z,38.57
2018-11-23T01:46:20.275Z,38.30
2018-11-23T01:48:47.997Z,37.00
2018-11-23T01:51:15.717Z,35.97
2018-11-23T01:53:47.719Z,36.17
2018-11-23T01:56:15.457Z,34.50
2018-11-23T01:58:43.211Z,36.17
2018-11-23T02:01:10.969Z,37.60
2018-11-23T02:03:38.849Z,37.60
2018-11-23T02:06:06.643Z,36.37
2018-11-23T02:08:34.393Z,36.80
2018-11-23T02:11:02.103Z,35.53
2018-11-23T02:13:29.825Z,37.93
2018-11-23T02:15:57.561Z,35.53
2018-11-23T02:18:25.297Z,36.93
2018-11-23T02:20:53.001Z,36.37
2018-11-23T02:23:20.769Z,37.17
2018-11-23T02:25:48.448Z,36.00
2018-11-23T02:28:16.156Z,37.20
2018-11-23T02:30:44.080Z,38.27
2018-11-23T02:33:11.785Z,36.37
2018-11-23T02:35:39.471Z,37.63
2018-11-23T02:38:07.241Z,37.77
2018-11-23T02:40:34.924Z,37.27
2018-11-23T02:43:02.665Z,37.70
2018-11-23T02:45:30.437Z,36.13
2018-11-23T02:47:58.148Z,37.03
2018-11-23T02:50:25.881Z,38.47
2018-11-23T02:52:53.633Z,37.07
2018-11-23T02:55:21.564Z,36.33
2018-11-23T02:57:49.268Z,37.60
2018-11-23T03:00:18.535Z,36.90
2018-11-23T03:02:46.320Z,37.80
2018-11-23T03:05:16.161Z,36.20
2018-11-23T03:07:44.211Z,35.33
2018-11-23T03:10:13.117Z,35.27
2018-11-23T03:12:41.441Z,33.30
2018-11-23T03:15:10.984Z,33.63
2018-11-23T03:17:38.686Z,36.07
2018-11-23T03:20:08.784Z,33.23
2018-11-23T03:22:36.524Z,30.47
2018-11-23T03:25:04.924Z,32.60
2018-11-23T03:27:32.632Z,32.23
2018-11-23T03:30:00.372Z,31.37
2018-11-23T03:32:28.348Z,28.53
2018-11-23T03:34:56.053Z,31.97
2018-11-23T03:37:23.753Z,29.77
2018-11-23T03:39:51.491Z,30.30
2018-11-23T03:42:19.187Z,30.33
2018-11-23T03:44:46.898Z,28.67
2018-11-23T03:47:14.608Z,30.83
2018-11-23T03:49:42.870Z,27.17
2018-11-23T03:52:10.602Z,28.77
2018-11-23T03:54:38.345Z,25.40
2018-11-23T03:57:06.036Z,27.90
2018-11-23T03:59:33.765Z,28.63
2018-11-23T04:02:01.446Z,28.27
2018-11-23T04:04:29.178Z,29.83
2018-11-23T04:06:57.068Z,29.53
2018-11-23T04:09:24.767Z,28.47
2018-11-23T04:11:52.462Z,26.50
2018-11-23T04:14:20.202Z,27.90
2018-11-23T04:16:47.904Z,27.00
2018-11-23T04:19:15.634Z,28.60
2018-11-23T04:21:43.365Z,27.93
2018-11-23T04:24:11.062Z,23.67
2018-11-23T04:26:38.796Z,25.63
2018-11-23T04:29:06.596Z,27.20
2018-11-23T04:31:34.323Z,24.97
2018-11-23T04:34:02.058Z,24.67
2018-11-23T04:36:29.811Z,25.17
2018-11-23T04:38:57.566Z,23.77
2018-11-23T04:41:25.267Z,24.20
2018-11-23T04:43:53.006Z,24.43
2018-11-23T04:46:20.731Z,26.27
2018-11-23T04:48:48.448Z,25.10
2018-11-23T04:51:16.188Z,27.70
2018-11-23T04:53:43.927Z,23.80
2018-11-23T04:56:11.648Z,23.93
2018-11-23T04:58:39.349Z,22.80
2018-11-23T05:01:07.127Z,23.80
2018-11-23T05:03:34.869Z,23.07
2018-11-23T05:06:02.647Z,25.03
2018-11-23T05:08:30.472Z,23.57
2018-11-23T05:10:58.214Z,27.10
2018-11-23T05:13:25.921Z,26.53
2018-11-23T05:15:53.632Z,25.10
2018-11-23T05:18:21.390Z,25.53
2018-11-23T05:20:49.127Z,24.67
2018-11-23T05:23:16.834Z,28.43
2018-11-23T05:25:44.537Z,28.10
2018-11-23T05:28:12.254Z,25.93
2018-11-23T05:30:39.943Z,22.73
2018-11-23T05:33:07.645Z,25.43
2018-11-23T05:35:35.463Z,21.43
2018-11-23T05:38:03.285Z,23.63
2018-11-23T05:40:31.421Z,21.73
2018-11-23T05:43:04.283Z,20.97
2018-11-23T05:45:27.423Z,21.13
2018-11-23T05:47:55.619Z,25.30
2018-11-23T05:50:24.729Z,24.10
2018-11-23T05:52:52.532Z,24.17
2018-11-23T05:55:20.282Z,26.27
2018-11-23T05:57:48.172Z,23.03
2018-11-23T06:00:19.961Z,25.87
2018-11-23T06:02:48.093Z,24.00
2018-11-23T06:05:17.433Z,24.10
2018-11-23T06:07:45.557Z,22.70
2018-11-23T06:10:14.750Z,21.33
2018-11-23T06:12:43.242Z,23.10
2018-11-23T06:15:13.721Z,22.67
2018-11-23T06:17:41.796Z,25.20
2018-11-23T06:20:12.348Z,24.77
2018-11-23T06:22:40.156Z,25.30
2018-11-23T06:25:14.639Z,23.77
2018-11-23T06:27:42.809Z,23.20
2018-11-23T06:30:11.700Z,25.87
2018-11-23T06:32:50.918Z,24.50
2018-11-23T06:35:18.630Z,24.43
2018-11-23T06:37:47.229Z,25.20
2018-11-23T06:40:15.079Z,26.40
2018-11-23T06:42:43.735Z,24.97
2018-11-23T06:45:11.609Z,24.77
2018-11-23T06:47:39.594Z,24.87
2018-11-23T06:50:09.983Z,21.93
2018-11-23T06:52:38.145Z,23.13
2018-11-23T06:55:06.532Z,21.50
2018-11-23T06:57:34.401Z,22.77
2018-11-23T07:00:02.196Z,26.33
2018-11-23T07:02:29.930Z,33.23
2018-11-23T07:04:57.625Z,26.50
2018-11-23T07:07:25.522Z,24.67
2018-11-23T07:09:53.372Z,24.03
2018-11-23T07:12:23.073Z,26.70
2018-11-23T07:14:52.372Z,26.47
2018-11-23T07:17:20.394Z,25.50
2018-11-23T07:19:49.326Z,25.40
2018-11-23T07:22:17.676Z,24.07
2018-11-23T07:24:45.828Z,21.17
2018-11-23T07:27:13.925Z,21.40
2018-11-23T07:29:43.161Z,22.60
2018-11-23T07:32:10.888Z,24.60
2018-11-23T07:34:38.733Z,22.07
2018-11-23T07:37:06.531Z,20.60
2018-11-23T07:39:45.548Z,22.87
2018-11-23T07:42:18.488Z,24.57
2018-11-23T07:44:46.328Z,23.67
2018-11-23T07:47:14.075Z,22.63
2018-11-23T07:49:41.774Z,23.93
2018-11-23T07:52:09.571Z,25.13
2018-11-23T07:54:37.816Z,25.63
2018-11-23T07:57:05.832Z,24.23
2018-11-23T07:59:33.716Z,24.13
2018-11-23T08:02:01.434Z,27.00
2018-11-23T08:04:29.168Z,26.07
2018-11-23T08:06:56.944Z,26.93
2018-11-23T08:09:24.670Z,23.77
2018-11-23T08:11:52.886Z,24.70
2018-11-23T08:14:21.160Z,24.13
2018-11-23T08:16:48.922Z,25.27
2018-11-23T08:19:16.959Z,27.27
2018-11-23T08:21:44.686Z,24.83
2018-11-23T08:24:12.420Z,25.33
2018-11-23T08:26:43.850Z,23.67
2018-11-23T08:29:11.626Z,24.90
2018-11-23T08:31:39.500Z,21.77
2018-11-23T08:34:07.458Z,20.83
2018-11-23T08:36:35.307Z,19.23
2018-11-23T08:39:04.792Z,20.33
2018-11-23T08:41:31.886Z,18.47
2018-11-23T08:43:59.631Z,21.90
2018-11-23T08:46:27.356Z,22.77
2018-11-23T08:48:55.064Z,20.90
2018-11-23T08:51:22.838Z,23.63
2018-11-23T08:53:50.558Z,29.80
2018-11-23T08:56:18.261Z,24.67
2018-11-23T08:58:46.016Z,23.70
2018-11-23T09:01:13.731Z,23.60
2018-11-23T09:03:41.424Z,25.50
2018-11-23T09:06:09.186Z,24.70
2018-11-23T09:08:36.929Z,24.13
2018-11-23T09:11:05.151Z,23.07
2018-11-23T09:13:32.888Z,22.33
2018-11-23T09:16:00.694Z,22.20
2018-11-23T09:18:28.382Z,22.13
2018-11-23T09:20:56.122Z,23.27
2018-11-23T09:23:23.904Z,21.30
2018-11-23T09:25:51.857Z,23.83
2018-11-23T09:28:19.663Z,21.17
2018-11-23T09:30:47.366Z,21.20
2018-11-23T09:33:15.188Z,23.43
2018-11-23T09:35:42.948Z,22.77
2018-11-23T09:38:10.684Z,22.63
2018-11-23T09:40:38.412Z,23.10
2018-11-23T09:43:06.232Z,23.60
2018-11-23T09:45:34.345Z,23.90
2018-11-23T09:48:03.316Z,28.50
2018-11-23T09:50:31.088Z,25.67
2018-11-23T09:53:01.348Z,23.97
2018-11-23T09:55:30.042Z,24.97
2018-11-23T09:57:57.795Z,27.23
2018-11-23T10:00:27.030Z,24.90
2018-11-23T10:02:55.688Z,25.30
2018-11-23T10:05:24.088Z,24.40
2018-11-23T10:07:53.430Z,24.37
2018-11-23T10:10:21.830Z,24.20
2018-11-23T10:12:49.694Z,21.90
2018-11-23T10:15:18.060Z,20.80
2018-11-23T10:17:45.761Z,20.83
2018-11-23T10:20:16.121Z,22.03
2018-11-23T10:22:44.243Z,22.17
2018-11-23T10:25:13.330Z,22.20
2018-11-23T10:27:41.671Z,20.70
2018-11-23T10:30:11.908Z,21.27
2018-11-23T10:32:39.652Z,21.93
2018-11-23T10:35:08.142Z,21.77
2018-11-23T10:37:35.873Z,21.73
2018-11-23T10:40:05.094Z,22.13
2018-11-23T10:42:32.902Z,22.03
2018-11-23T10:45:00.626Z,17.80
2018-11-23T10:47:28.350Z,20.40
2018-11-23T10:49:56.068Z,19.47
2018-11-23T10:52:23.844Z,19.73
2018-11-23T10:54:51.484Z,30.83
2018-11-23T10:57:19.209Z,24.17
2018-11-23T10:59:46.881Z,23.37
2018-11-23T11:02:20.286Z,20.13
2018-11-23T11:04:56.578Z,27.90
2018-11-23T11:07:24.310Z,25.73
2018-11-23T11:09:51.992Z,21.80
2018-11-23T11:12:19.700Z,21.33
2018-11-23T11:14:47.438Z,22.67
2018-11-23T11:17:15.160Z,21.50
2018-11-23T11:19:42.861Z,20.63
2018-11-23T11:22:10.607Z,23.40
2018-11-23T11:24:38.311Z,21.87
2018-11-23T11:27:06.049Z,22.97
2018-11-23T11:29:33.784Z,27.10
2018-11-23T11:32:01.852Z,23.40
2018-11-23T11:34:29.551Z,21.60
2018-11-23T11:36:57.261Z,29.37
2018-11-23T11:39:25.009Z,22.77
2018-11-23T11:41:52.737Z,22.40
2018-11-23T11:44:20.430Z,27.67
2018-11-23T11:46:48.148Z,22.27
2018-11-23T11:49:15.835Z,18.63
2018-11-23T11:51:43.519Z,22.13
2018-11-23T11:54:11.208Z,19.37
2018-11-23T11:56:38.920Z,21.03
2018-11-23T11:59:06.655Z,20.60
2018-11-23T12:01:34.400Z,21.30
2018-11-23T12:04:02.148Z,19.83
2018-11-23T12:06:29.835Z,20.37
2018-11-23T12:08:57.527Z,20.10
2018-11-23T12:11:25.251Z,19.17
2018-11-23T12:13:53.129Z,19.90
2018-11-23T12:16:27.785Z,19.27
2018-11-23T12:18:55.509Z,19.53
2018-11-23T12:21:23.227Z,20.20
2018-11-23T12:23:50.911Z,19.73
2018-11-23T12:26:18.667Z,19.00
2018-11-23T12:28:46.433Z,19.63
2018-11-23T12:31:14.169Z,19.20
2018-11-23T12:33:41.964Z,18.97
2018-11-23T12:36:09.665Z,18.87
2018-11-23T12:38:40.175Z,19.50
2018-11-23T12:41:05.337Z,21.27
2018-11-23T12:43:33.015Z,19.17
2018-11-23T12:46:00.715Z,48.03
2018-11-23T12:48:28.444Z,77.00
2018-11-23T12:50:56.137Z,38.00
2018-11-23T12:53:23.839Z,18.23
2018-11-23T12:55:51.585Z,23.83
2018-11-23T12:58:19.282Z,35.07
2018-11-23T13:00:47.000Z,39.70
2018-11-23T13:03:14.778Z,20.83
2018-11-23T13:05:42.508Z,28.10
2018-11-23T13:08:10.189Z,26.57
2018-11-23T13:10:37.957Z,22.50
2018-11-23T13:13:05.666Z,21.43
2018-11-23T13:15:33.408Z,25.70
2018-11-23T13:18:01.448Z,23.83
2018-11-23T13:20:29.158Z,23.23
2018-11-23T13:22:56.940Z,25.30
2018-11-23T13:25:26.381Z,24.70
2018-11-23T13:27:54.356Z,27.13
2018-11-23T13:30:25.630Z,25.23
2018-11-23T13:32:53.372Z,24.37
2018-11-23T13:35:21.320Z,23.07
2018-11-23T13:37:49.276Z,24.13
2018-11-23T13:40:18.576Z,24.70
2018-11-23T13:42:46.906Z,25.40
2018-11-23T13:45:16.328Z,27.57
2018-11-23T13:47:43.989Z,29.20
2018-11-23T13:50:13.238Z,29.30
2018-11-23T13:52:41.780Z,24.50
2018-11-23T13:55:09.579Z,23.23
2018-11-23T13:57:37.715Z,19.97
2018-11-23T14:02:49.304Z,24.33
2018-11-23T14:05:19.518Z,23.60
2018-11-23T14:07:48.640Z,24.37
2018-11-23T14:10:18.553Z,30.10
2018-11-23T14:12:46.545Z,20.47
2018-11-23T14:15:15.884Z,21.57
2018-11-23T14:17:44.719Z,22.40
2018-11-23T14:20:13.608Z,26.07
2018-11-23T14:22:41.359Z,21.40
2018-11-23T14:25:11.120Z,20.17
2018-11-23T14:27:38.839Z,24.37
2018-11-23T14:30:09.822Z,31.23
2018-11-23T14:32:37.991Z,27.40
2018-11-23T14:35:07.072Z,26.20
2018-11-23T14:37:35.344Z,24.53
2018-11-23T14:40:03.143Z,21.63
2018-11-23T14:42:30.851Z,26.60
2018-11-23T14:44:58.556Z,26.47
2018-11-23T14:47:26.337Z,27.17
2018-11-23T14:49:54.083Z,22.50
2018-11-23T14:52:21.850Z,21.70
2018-11-23T14:54:49.603Z,23.57
2018-11-23T14:57:17.341Z,25.93
2018-11-23T14:59:45.075Z,25.77
2018-11-23T15:02:12.847Z,27.57
2018-11-23T15:04:40.590Z,26.77
2018-11-23T15:07:08.351Z,33.27
2018-11-23T15:09:36.100Z,29.40
2018-11-23T15:12:04.383Z,30.20
2018-11-23T15:14:32.072Z,25.07
2018-11-23T15:16:59.855Z,24.70
2018-11-23T15:19:27.537Z,26.50
2018-11-23T15:21:55.231Z,21.50
2018-11-23T15:24:23.098Z,27.43
2018-11-23T15:26:50.840Z,22.43
2018-11-23T15:29:18.643Z,25.40
2018-11-23T15:31:46.409Z,26.97
2018-11-23T15:34:14.179Z,25.63
2018-11-23T15:36:41.891Z,24.93
2018-11-23T15:39:11.040Z,24.33
2018-11-23T15:41:39.035Z,25.00
2018-11-23T15:44:06.846Z,23.10
2018-11-23T15:46:34.579Z,27.27
2018-11-23T15:49:02.335Z,26.63
2018-11-23T15:51:30.044Z,26.40
2018-11-23T15:53:57.897Z,24.27
2018-11-23T15:56:25.607Z,23.70
2018-11-23T15:58:53.309Z,19.17
2018-11-23T16:01:21.027Z,21.90
2018-11-23T16:03:48.858Z,23.20
2018-11-23T16:06:16.627Z,22.17
2018-11-23T16:08:45.269Z,21.83
2018-11-23T16:11:14.394Z,20.43
2018-11-23T16:13:42.777Z,18.90
2018-11-23T16:16:11.414Z,18.80
2018-11-23T16:18:39.175Z,23.37
2018-11-23T16:21:07.851Z,18.77
2018-11-23T16:23:35.621Z,20.90
2018-11-23T16:26:03.451Z,22.77
2018-11-23T16:28:31.183Z,24.33
2018-11-23T16:30:58.964Z,23.80
2018-11-23T16:33:26.699Z,25.10
2018-11-23T16:35:54.459Z,23.40
2018-11-23T16:38:23.278Z,21.40
2018-11-23T16:40:53.494Z,25.30
2018-11-23T16:43:21.238Z,26.33
2018-11-23T16:45:49.049Z,23.17
2018-11-23T16:48:17.547Z,25.17
2018-11-23T16:50:45.595Z,28.07
2018-11-23T16:53:13.376Z,26.53
2018-11-23T16:55:41.178Z,30.10
2018-11-23T16:58:10.736Z,35.67
2018-11-23T17:00:40.863Z,38.37
2018-11-23T17:03:10.115Z,33.43
2018-11-23T17:05:39.337Z,28.97
2018-11-23T17:08:08.253Z,31.37
2018-11-23T17:10:36.067Z,31.83
2018-11-23T17:13:03.897Z,35.53
2018-11-23T17:15:31.666Z,29.80
2018-11-23T17:17:59.679Z,26.43
2018-11-23T17:20:30.319Z,31.90
2018-11-23T17:22:59.323Z,24.13
2018-11-23T17:25:27.755Z,29.10
2018-11-23T17:27:56.799Z,28.40
2018-11-23T17:30:26.012Z,31.27
2018-11-23T17:32:54.035Z,28.17
2018-11-23T17:35:22.035Z,34.90
2018-11-23T17:37:49.815Z,35.07
2018-11-23T17:40:18.993Z,37.67
2018-11-23T17:42:46.731Z,35.57
2018-11-23T17:45:17.382Z,31.97
2018-11-23T17:47:45.207Z,34.37
2018-11-23T17:50:15.094Z,33.33
2018-11-23T17:52:43.127Z,32.50
2018-11-23T17:55:11.802Z,29.80
2018-11-23T17:57:40.202Z,30.77
2018-11-23T18:00:11.453Z,30.93
2018-11-23T18:02:39.199Z,31.00
2018-11-23T18:05:08.403Z,30.60
2018-11-23T18:07:36.249Z,35.47
2018-11-23T18:10:05.956Z,35.93
2018-11-23T18:12:35.865Z,33.83
2018-11-23T18:15:04.049Z,36.40
2018-11-23T18:17:31.806Z,40.63
2018-11-23T18:19:59.883Z,33.27
2018-11-23T18:22:27.643Z,34.00
2018-11-23T18:24:55.399Z,35.90
2018-11-23T18:27:23.197Z,37.00
2018-11-23T18:29:50.908Z,37.47
2018-11-23T18:32:18.655Z,37.00
2018-11-23T18:34:46.479Z,33.30
2018-11-23T18:37:14.291Z,32.50
2018-11-23T18:39:42.094Z,34.17
2018-11-23T18:42:09.883Z,35.03
2018-11-23T18:44:37.695Z,34.93
2018-11-23T18:47:05.514Z,32.87
2018-11-23T18:49:33.307Z,33.53
2018-11-23T18:52:01.161Z,35.97
2018-11-23T18:54:28.979Z,32.17
2018-11-23T18:56:56.891Z,34.20
2018-11-23T18:59:24.670Z,37.33
2018-11-23T19:01:52.438Z,35.90
2018-11-23T19:04:21.427Z,37.77
2018-11-23T19:06:49.183Z,35.73
2018-11-23T19:09:16.985Z,35.00
2018-11-23T19:11:44.735Z,35.43
2018-11-23T19:14:12.542Z,33.00
2018-11-23T19:16:40.320Z,31.23
2018-11-23T19:19:08.110Z,33.77
2018-11-23T19:21:35.879Z,36.23
2018-11-23T19:24:03.783Z,35.80
2018-11-23T19:26:31.605Z,35.33
2018-11-23T19:28:59.314Z,33.97
2018-11-23T19:31:27.555Z,35.30
2018-11-23T19:33:59.078Z,34.20
2018-11-23T19:36:23.147Z,32.00
2018-11-23T19:38:50.882Z,35.77
2018-11-23T19:41:18.713Z,38.57
2018-11-23T19:43:48.025Z,41.37
2018-11-23T19:46:15.767Z,40.80
2018-11-23T19:48:43.571Z,40.93
2018-11-23T19:51:11.385Z,36.73
2018-11-23T19:53:39.150Z,41.40
2018-11-23T19:56:06.991Z,42.67
2018-11-23T19:58:34.707Z,39.63
2018-11-23T20:01:02.467Z,41.27
2018-11-23T20:03:30.273Z,41.70
2018-11-23T20:05:58.030Z,42.10
2018-11-23T20:08:25.768Z,43.50
2018-11-23T20:10:53.573Z,41.00
2018-11-23T20:13:21.294Z,42.10
2018-11-23T20:15:49.116Z,40.50
2018-11-23T20:18:16.935Z,40.27
2018-11-23T20:20:44.799Z,37.27
2018-11-23T20:23:12.574Z,41.47
2018-11-23T20:25:40.343Z,41.00
2018-11-23T20:28:08.101Z,41.40
2018-11-23T20:30:42.197Z,42.27
2018-11-23T20:33:03.763Z,45.07
2018-11-23T20:35:31.514Z,44.40
2018-11-23T20:37:59.247Z,42.17
2018-11-23T20:40:27.047Z,46.47
2018-11-23T20:42:54.870Z,46.83
2018-11-23T20:45:22.623Z,45.43
2018-11-23T20:47:50.397Z,48.00
2018-11-23T20:50:18.380Z,49.17
2018-11-23T20:52:46.489Z,44.93
2018-11-23T20:55:16.391Z,46.90
2018-11-23T20:57:44.158Z,49.87
2018-11-23T21:00:13.999Z,50.43
2018-11-23T21:02:41.877Z,49.10
2018-11-23T21:05:10.851Z,48.07
2018-11-23T21:07:38.669Z,42.97
2018-11-23T21:10:37.658Z,45.53
2018-11-23T21:13:05.406Z,43.03
2018-11-23T21:15:33.187Z,44.30
2018-11-23T21:18:02.135Z,44.27
2018-11-23T21:20:29.895Z,47.30
2018-11-23T21:22:57.679Z,42.70
2018-11-23T21:25:25.494Z,44.20
2018-11-23T21:27:53.262Z,44.43
2018-11-23T21:30:22.125Z,44.57
2018-11-23T21:32:50.483Z,46.67
2018-11-23T21:35:18.458Z,44.70
2018-11-23T21:37:46.158Z,44.27
2018-11-23T21:40:15.036Z,46.17
2018-11-23T21:42:42.764Z,42.70
2018-11-23T21:45:13.526Z,44.63
2018-11-23T21:47:41.285Z,45.57
2018-11-23T21:50:11.967Z,46.60
2018-11-23T21:52:39.660Z,42.67
2018-11-23T21:55:10.959Z,46.20
2018-11-23T21:57:38.659Z,44.53
2018-11-23T22:00:09.158Z,44.53
2018-11-23T22:02:36.887Z,43.17
2018-11-23T22:05:05.633Z,40.23
2018-11-23T22:07:33.587Z,36.33
2018-11-23T22:10:01.532Z,43.83
2018-11-23T22:12:29.526Z,44.80
2018-11-23T22:14:57.441Z,44.30
2018-11-23T22:17:25.218Z,47.80
2018-11-23T22:19:52.930Z,44.27
2018-11-23T22:22:20.802Z,44.50
2018-11-23T22:24:48.576Z,42.83
2018-11-23T22:27:16.266Z,43.23
2018-11-23T22:29:44.002Z,46.03
2018-11-23T22:32:11.719Z,43.10
2018-11-23T22:34:39.443Z,41.60
2018-11-23T22:37:13.847Z,40.97
2018-11-23T22:39:41.546Z,44.53
2018-11-23T22:42:09.249Z,40.20
2018-11-23T22:44:36.966Z,43.17
2018-11-23T22:47:04.777Z,40.53
2018-11-23T22:49:32.480Z,42.43
2018-11-23T22:52:00.242Z,40.53
2018-11-23T22:54:28.010Z,36.03
2018-11-23T22:56:55.760Z,40.17
2018-11-23T22:59:23.518Z,41.67
2018-11-23T23:01:51.314Z,38.90
2018-11-23T23:04:18.982Z,42.30
2018-11-23T23:06:46.730Z,41.63
2018-11-23T23:09:14.433Z,40.57
2018-11-23T23:11:42.127Z,32.83
2018-11-23T23:14:09.917Z,39.43
2018-11-23T23:16:37.641Z,41.27
2018-11-23T23:19:05.596Z,41.00
2018-11-23T23:21:33.340Z,39.17
2018-11-23T23:24:01.038Z,39.90
2018-11-23T23:26:28.754Z,39.33
2018-11-23T23:28:56.534Z,42.33
2018-11-23T23:31:24.226Z,43.03
2018-11-23T23:33:51.974Z,40.00
2018-11-23T23:36:19.685Z,37.13
2018-11-23T23:38:47.386Z,38.27
2018-11-23T23:41:15.141Z,38.27
2018-11-23T23:43:42.913Z,42.93
2018-11-23T23:46:10.686Z,31.23
2018-11-23T23:48:38.415Z,37.57
2018-11-23T23:51:06.257Z,37.80
2018-11-23T23:53:33.974Z,38.47
2018-11-23T23:56:01.656Z,41.53
2018-11-23T23:58:29.380Z,41.03
